Impacts METAR Board
IDs:

KCLL - College Station/East, TX, US

Updated at: 0300 UTC 15 Aug 2020
Potential Impact None Slight Moderate High
Time 14/15Z 14/16Z 14/17Z 14/18Z 14/19Z 14/20Z 14/21Z 14/22Z 14/23Z 15/00Z 15/01Z 15/02Z 15/03Z
Temp86 90 93 94 97 99 99 100 99 98 95 91 89
Dewpt73 72 69 69 67 69 69 68 66 68 70 70 73
Altim29.95 29.96 29.95 29.93 29.92 29.89 29.87 29.85 29.83 29.83 29.84 29.85 29.87
VIS10 10 10 10 10 10 10 10 10 10 10 10 10
CIG-- -- -- -- -- -- -- -- -- -- -- -- --
CoverCLRCLRCLRCLRCLRCLRCLRCLRCLRCLRCLRCLRCLR
FltCatVFRVFRVFRVFRVFRVFRVFRVFRVFRVFRVFRVFRVFR
WX--------------------------
WDir190210250210180190170170170160160160170
WSpd12 9 7 7 6 9 11 13 8 13 11 8 14
WGst-- -- -- -- -- 20 17 17 -- -- -- -- 18
Raw hourly METARs
KCLL 141453Z 19012KT 10SM CLR 30/23 A2995 RMK AO2 SLP137 T03000228 51008
KCLL 141553Z 21009KT 10SM CLR 32/22 A2996 RMK AO2 SLP141 T03220222
KCLL 141653Z 25007KT 10SM CLR 34/21 A2995 RMK AO2 SLP135 T03390206
KCLL 141753Z 21007KT 170V230 10SM CLR 34/21 A2993 RMK AO2 SLP129 T03440206 10350 20256 58008
KCLL 141853Z 18006KT 10SM CLR 36/19 A2992 RMK AO2 SLP125 T03610194
KCLL 141959Z 19009G20KT 10SM CLR 37/21 A2989 RMK AO2 T03720206
KCLL 142053Z 17011G17KT 10SM CLR 37/21 A2987 RMK AO2 SLP108 T03720206 58020
KCLL 142153Z 17013G17KT 10SM CLR 38/20 A2985 RMK AO2 SLP101 T03780200
KCLL 142253Z 17008KT 10SM CLR 37/19 A2983 RMK AO2 SLP096 T03720189
KCLL 142353Z 16013KT 10SM CLR 37/20 A2983 RMK AO2 SLP096 T03670200 10378 20350 56012
KCLL 150053Z 16011KT 10SM CLR 35/21 A2984 RMK AO2 SLP100 T03500211
KCLL 150153Z AUTO 16008KT 10SM CLR 33/21 A2985 RMK AO2 SLP101 T03280211
KCLL 150253Z AUTO 17014G18KT 10SM CLR 32/23 A2987 RMK AO2 SLP108 T03170228 53012